Time;durP1;ratioP1;P1;durP2;ratioP2;P2;SDS_P1;SDS_P2;PMS_P1;PMS_P2;Temp;Humidity;BMP_temperature;BMP_pressure;BME280_temperature;BME280_humidity;BME280_pressure;Samples;Min_cycle;Max_cycle;Signal;HPM_P1;HPM_P2
2022/11/19 00:00:54;;;;;;;4.40;3.00;;;2.10;99.90;;;;;;5008738;28;20033;-60
2022/11/19 00:03:21;;;;;;;5.18;3.53;;;2.20;99.90;;;;;;5028386;28;20080;-60
2022/11/19 00:05:48;;;;;;;4.68;3.50;;;2.10;99.90;;;;;;5009767;28;20043;-60
2022/11/19 00:08:18;;;;;;;6.18;3.13;;;2.10;99.90;;;;;;4998288;28;20030;-60
2022/11/19 00:10:45;;;;;;;4.55;2.80;;;2.10;99.90;;;;;;5010519;28;20685;-60
2022/11/19 00:13:12;;;;;;;6.72;2.95;;;2.10;99.90;;;;;;5025655;28;20037;-59
2022/11/19 00:15:38;;;;;;;4.63;2.95;;;2.10;99.90;;;;;;5011354;28;20041;-59
2022/11/19 00:18:05;;;;;;;4.35;2.88;;;1.60;99.90;;;;;;5008600;28;20251;-60
2022/11/19 00:20:34;;;;;;;5.00;2.70;;;2.10;99.90;;;;;;5005543;28;20607;-60
2022/11/19 00:23:00;;;;;;;4.35;3.08;;;2.10;99.90;;;;;;5023564;28;20033;-60
2022/11/19 00:25:29;;;;;;;6.63;3.30;;;2.10;99.90;;;;;;4995993;28;20044;-60
2022/11/19 00:27:56;;;;;;;4.38;2.83;;;2.10;99.90;;;;;;5009154;28;20045;-60
2022/11/19 00:30:22;;;;;;;5.03;3.05;;;2.10;99.90;;;;;;5023800;28;20036;-59
2022/11/19 00:32:48;;;;;;;4.60;2.78;;;2.10;99.90;;;;;;5010049;28;20037;-60
2022/11/19 00:35:14;;;;;;;5.13;3.40;;;2.10;99.90;;;;;;5024107;28;20037;-60
2022/11/19 00:37:40;;;;;;;4.30;3.08;;;2.10;99.90;;;;;;5026756;28;20041;-60
2022/11/19 00:40:07;;;;;;;5.70;3.63;;;2.10;99.90;;;;;;5038201;28;20052;-60
2022/11/19 00:42:34;;;;;;;5.43;3.10;;;2.10;99.90;;;;;;5015028;28;20491;-59
2022/11/19 00:45:00;;;;;;;6.10;3.72;;;2.10;99.90;;;;;;5006578;28;20120;-60
2022/11/19 00:47:26;;;;;;;5.05;3.10;;;2.10;99.90;;;;;;4998290;28;20124;-60
2022/11/19 00:49:52;;;;;;;4.85;3.72;;;2.10;99.90;;;;;;5034887;28;20071;-60
2022/11/19 00:52:18;;;;;;;4.95;3.35;;;2.00;99.90;;;;;;5010558;28;20038;-60
2022/11/19 00:54:43;;;;;;;5.28;3.22;;;2.10;99.90;;;;;;5031435;28;20116;-60
2022/11/19 00:57:09;;;;;;;4.90;3.28;;;2.00;99.90;;;;;;5010218;28;20052;-60
2022/11/19 00:59:35;;;;;;;5.07;3.40;;;1.90;99.90;;;;;;5012006;28;20568;-60
2022/11/19 01:02:00;;;;;;;5.72;2.83;;;1.90;99.90;;;;;;5025593;28;21059;-60
2022/11/19 01:04:26;;;;;;;7.35;3.83;;;1.90;99.90;;;;;;5024705;28;20088;-60
2022/11/19 01:06:52;;;;;;;5.43;3.47;;;1.80;99.90;;;;;;5027492;28;20335;-60
2022/11/19 01:09:17;;;;;;;5.85;3.65;;;1.80;99.90;;;;;;5019213;28;20530;-59
2022/11/19 01:11:43;;;;;;;5.38;3.53;;;1.80;99.90;;;;;;5025202;28;20091;-60
2022/11/19 01:14:09;;;;;;;6.60;3.92;;;1.80;99.90;;;;;;5021469;28;20124;-60
2022/11/19 01:16:37;;;;;;;4.80;3.35;;;1.80;99.90;;;;;;5028119;28;20121;-60
2022/11/19 01:19:04;;;;;;;5.97;3.05;;;1.80;99.90;;;;;;5006818;28;20045;-60
2022/11/19 01:21:32;;;;;;;5.25;3.50;;;1.80;99.90;;;;;;5023409;28;20052;-59
2022/11/19 01:23:58;;;;;;;4.40;2.97;;;1.80;99.90;;;;;;5004011;28;20195;-60
2022/11/19 01:26:25;;;;;;;5.35;3.30;;;1.80;99.90;;;;;;5007912;28;21298;-59
2022/11/19 01:28:51;;;;;;;4.45;2.90;;;1.70;99.90;;;;;;5030534;28;20037;-60
2022/11/19 01:31:23;;;;;;;4.63;3.08;;;1.80;99.90;;;;;;4994622;28;20120;-60
2022/11/19 01:33:49;;;;;;;4.88;3.58;;;1.70;99.90;;;;;;5026732;28;20033;-60
2022/11/19 01:36:28;;;;;;;5.10;3.47;;;1.70;99.90;;;;;;5013790;28;20036;-60
2022/11/19 01:38:55;;;;;;;4.40;3.17;;;1.60;99.90;;;;;;5027325;28;20068;-60
2022/11/19 01:41:25;;;;;;;5.97;4.00;;;1.50;99.90;;;;;;5006108;28;20065;-60
2022/11/19 01:43:51;;;;;;;7.28;4.50;;;1.50;99.90;;;;;;5026868;28;20050;-59
2022/11/19 01:46:20;;;;;;;6.68;4.03;;;1.40;99.90;;;;;;5028459;28;20109;-60
2022/11/19 01:49:09;;;;;;;6.30;4.07;;;1.30;99.90;;;;;;5008279;28;20056;-60
2022/11/19 01:51:57;;;;;;;6.20;3.70;;;1.30;99.90;;;;;;5025933;28;20047;-58
2022/11/19 01:54:28;;;;;;;6.00;4.32;;;1.20;99.90;;;;;;5024638;28;20037;-60
2022/11/19 01:56:57;;;;;;;4.72;3.53;;;1.20;99.90;;;;;;5029603;28;20415;-60
2022/11/19 01:59:25;;;;;;;5.82;3.83;;;1.10;99.90;;;;;;5017660;28;20038;-60
2022/11/19 02:01:51;;;;;;;4.72;3.08;;;1.10;99.90;;;;;;5028313;28;20044;-60
2022/11/19 02:04:19;;;;;;;5.28;3.90;;;1.10;99.90;;;;;;5027394;28;20033;-60
2022/11/19 02:06:45;;;;;;;5.88;4.30;;;1.00;99.90;;;;;;5027383;28;20119;-60
2022/11/19 02:09:10;;;;;;;6.32;3.78;;;1.00;99.90;;;;;;5032379;28;20612;-60
2022/11/19 02:11:45;;;;;;;5.70;3.80;;;1.00;99.90;;;;;;5028998;28;20069;-60
2022/11/19 02:14:55;;;;;;;5.40;3.70;;;1.00;99.90;;;;;;5005769;28;20053;-59
2022/11/19 02:17:59;;;;;;;5.97;3.80;;;1.10;99.90;;;;;;5014908;28;20041;-59
2022/11/19 02:20:39;;;;;;;7.07;4.25;;;1.10;99.90;;;;;;4976507;28;20082;-59
2022/11/19 02:23:29;;;;;;;6.53;4.07;;;1.10;99.90;;;;;;5018414;28;20411;-60
2022/11/19 02:26:13;;;;;;;5.82;3.88;;;1.10;99.90;;;;;;5024232;28;20564;-60
2022/11/19 02:29:00;;;;;;;6.97;4.67;;;1.00;99.90;;;;;;5010336;28;20068;-59
2022/11/19 02:31:51;;;;;;;5.55;3.65;;;1.00;99.90;;;;;;5003542;28;20041;-59
2022/11/19 02:34:38;;;;;;;6.43;3.70;;;1.00;99.90;;;;;;5026935;28;20045;-59
2022/11/19 02:37:25;;;;;;;6.60;4.22;;;1.00;99.90;;;;;;5026253;28;20049;-59
2022/11/19 02:40:03;;;;;;;7.03;4.43;;;1.00;99.90;;;;;;5013257;28;20059;-64
2022/11/19 02:42:35;;;;;;;6.35;4.40;;;0.90;99.90;;;;;;5025517;28;20034;-60
2022/11/19 02:45:07;;;;;;;8.05;4.38;;;0.80;99.90;;;;;;5025055;28;20041;-60
2022/11/19 02:47:55;;;;;;;6.07;4.63;;;0.80;99.90;;;;;;5002923;28;20049;-59
2022/11/19 02:50:29;;;;;;;7.07;4.30;;;0.80;99.90;;;;;;5013406;28;20075;-60
2022/11/19 02:52:55;;;;;;;7.43;4.90;;;0.80;99.90;;;;;;5009654;28;20033;-60
2022/11/19 02:55:22;;;;;;;8.13;4.28;;;0.70;99.90;;;;;;4995337;28;20033;-59
2022/11/19 03:04:28;;;;;;;6.95;4.63;;;0.70;99.90;;;;;;5017708;28;20601;-59
2022/11/19 03:06:27;;;;;;;6.10;3.75;;;0.60;99.90;;;;;;4997337;28;20042;-60
2022/11/19 03:08:53;;;;;;;7.95;4.80;;;0.60;99.90;;;;;;5016294;28;20064;-60
2022/11/19 03:11:25;;;;;;;7.95;4.95;;;0.60;99.90;;;;;;5026040;28;20029;-60
2022/11/19 03:16:57;;;;;;;8.73;5.22;;;0.50;99.90;;;;;;5023706;28;20046;-60
2022/11/19 03:19:32;;;;;;;7.13;5.05;;;0.50;99.90;;;;;;5025018;28;20204;-60
2022/11/19 03:22:21;;;;;;;7.13;4.70;;;0.50;99.90;;;;;;5009912;28;20037;-59
2022/11/19 03:25:05;;;;;;;7.50;5.25;;;0.40;99.90;;;;;;5002112;28;20588;-59
2022/11/19 03:27:40;;;;;;;7.55;5.15;;;0.40;99.90;;;;;;5021525;28;20037;-60
2022/11/19 03:30:07;;;;;;;7.50;4.78;;;0.40;99.90;;;;;;5025318;28;20029;-60
2022/11/19 03:33:00;;;;;;;6.90;4.47;;;0.40;99.90;;;;;;5037070;28;20044;-59
2022/11/19 03:35:31;;;;;;;8.23;5.00;;;0.30;99.90;;;;;;5010039;28;20060;-60
2022/11/19 03:38:03;;;;;;;7.97;4.72;;;0.30;99.90;;;;;;5033321;28;20088;-60
2022/11/19 03:40:31;;;;;;;7.93;4.85;;;0.30;99.90;;;;;;5031073;28;20074;-60
2022/11/19 03:42:59;;;;;;;7.50;5.22;;;0.30;99.90;;;;;;5019156;28;20048;-59
2022/11/19 03:45:28;;;;;;;8.85;5.50;;;0.20;99.90;;;;;;5030503;28;20037;-60
2022/11/19 03:47:55;;;;;;;7.03;4.82;;;0.20;99.90;;;;;;5030589;28;20453;-60
2022/11/19 03:50:52;;;;;;;7.18;4.82;;;0.20;99.90;;;;;;5021371;28;20037;-60
2022/11/19 03:53:19;;;;;;;8.55;5.13;;;0.20;99.90;;;;;;5022140;28;20120;-59
2022/11/19 03:56:01;;;;;;;9.25;5.43;;;0.10;99.90;;;;;;5027286;28;20045;-60
2022/11/19 03:58:28;;;;;;;7.10;4.75;;;0.10;99.90;;;;;;5006219;28;20048;-60
2022/11/19 04:00:54;;;;;;;7.28;5.30;;;0.10;99.90;;;;;;5006019;28;20045;-59
2022/11/19 04:03:20;;;;;;;7.45;4.85;;;0.10;99.90;;;;;;4998374;28;20787;-60
2022/11/19 04:05:46;;;;;;;7.95;5.13;;;0.00;99.90;;;;;;5030019;28;20041;-59
2022/11/19 04:08:11;;;;;;;7.82;5.18;;;0.10;99.90;;;;;;5008408;28;20045;-60
2022/11/19 04:10:37;;;;;;;9.85;6.00;;;0.00;99.90;;;;;;5005579;28;20145;-60
2022/11/19 04:13:03;;;;;;;8.52;4.85;;;0.00;99.90;;;;;;5025917;28;20056;-60
2022/11/19 04:15:29;;;;;;;7.97;4.65;;;0.00;99.90;;;;;;5018346;28;20045;-60
2022/11/19 04:17:54;;;;;;;8.65;5.25;;;0.00;99.90;;;;;;5025515;28;20085;-60
2022/11/19 04:20:20;;;;;;;8.15;4.82;;;0.00;99.90;;;;;;5026059;28;20485;-60
2022/11/19 04:22:46;;;;;;;6.85;5.00;;;-0.10;99.90;;;;;;5023540;28;20404;-60
2022/11/19 04:25:11;;;;;;;7.07;4.85;;;-0.10;99.90;;;;;;5020702;28;20051;-59
2022/11/19 04:27:37;;;;;;;7.93;5.20;;;-0.10;99.90;;;;;;5032329;28;20492;-60
2022/11/19 04:30:04;;;;;;;7.28;4.65;;;-0.10;99.90;;;;;;5028400;28;20040;-59
2022/11/19 04:32:29;;;;;;;7.05;4.93;;;-0.10;99.90;;;;;;5021660;28;20091;-60
2022/11/19 04:34:55;;;;;;;8.73;5.22;;;-0.10;99.90;;;;;;5026522;28;20041;-60
2022/11/19 04:37:20;;;;;;;8.50;5.43;;;-0.20;99.90;;;;;;5029691;28;20047;-59
2022/11/19 04:39:46;;;;;;;7.47;5.07;;;-0.10;99.90;;;;;;5028077;28;20042;-59
2022/11/19 04:42:12;;;;;;;7.95;5.30;;;-0.10;99.90;;;;;;5027770;28;20049;-59
2022/11/19 04:44:38;;;;;;;7.43;5.18;;;-0.10;99.90;;;;;;5010545;28;20496;-60
2022/11/19 04:47:04;;;;;;;8.32;4.60;;;-0.10;99.90;;;;;;5011284;28;20446;-60
2022/11/19 04:49:29;;;;;;;10.27;5.55;;;-0.20;99.90;;;;;;5007817;28;20047;-59
2022/11/19 04:51:55;;;;;;;7.30;5.28;;;-0.20;99.90;;;;;;5004817;28;20607;-60
2022/11/19 04:54:21;;;;;;;6.43;4.40;;;-0.20;99.90;;;;;;5027789;28;20037;-60
2022/11/19 04:56:46;;;;;;;7.55;4.78;;;0.50;99.90;;;;;;5009932;28;20045;-60
2022/11/19 04:59:12;;;;;;;8.02;4.82;;;-0.20;99.90;;;;;;5029526;28;20033;-60
2022/11/19 05:01:38;;;;;;;8.40;4.72;;;-0.20;99.90;;;;;;5027332;28;20044;-60
2022/11/19 05:04:03;;;;;;;7.10;4.40;;;-0.20;99.90;;;;;;5024958;28;20124;-59
2022/11/19 05:06:29;;;;;;;7.60;5.28;;;-0.30;99.90;;;;;;4999808;28;20411;-58
2022/11/19 05:08:55;;;;;;;7.80;4.93;;;-0.20;99.90;;;;;;5025387;28;20440;-60
2022/11/19 05:11:20;;;;;;;9.48;5.35;;;-0.30;99.90;;;;;;5004496;28;20106;-60
2022/11/19 05:13:46;;;;;;;7.20;4.70;;;-0.30;99.90;;;;;;5007555;28;20515;-59
2022/11/19 05:16:12;;;;;;;7.28;4.80;;;-0.30;99.90;;;;;;5009782;28;20056;-60
2022/11/19 05:18:37;;;;;;;8.23;4.90;;;-0.30;99.90;;;;;;5010449;28;20040;-60
2022/11/19 05:21:03;;;;;;;9.57;5.38;;;-0.30;99.90;;;;;;5011621;28;20489;-59
2022/11/19 05:23:29;;;;;;;8.68;4.93;;;-0.30;99.90;;;;;;5009350;28;20044;-60
2022/11/19 05:25:55;;;;;;;8.60;5.43;;;-0.40;99.90;;;;;;5006618;28;20088;-59
2022/11/19 05:28:20;;;;;;;7.82;5.10;;;-0.30;99.90;;;;;;5008704;28;20119;-60
2022/11/19 05:30:46;;;;;;;7.73;4.73;;;-0.40;99.90;;;;;;5000681;28;20034;-60
2022/11/19 05:33:12;;;;;;;8.20;4.85;;;-0.40;99.90;;;;;;5014667;28;20507;-59
2022/11/19 05:35:37;;;;;;;8.57;5.10;;;-0.40;99.90;;;;;;4999621;28;20145;-59
2022/11/19 05:38:03;;;;;;;8.30;5.97;;;-0.40;99.90;;;;;;5029124;28;20033;-60
2022/11/19 05:40:29;;;;;;;8.75;5.43;;;-0.40;99.90;;;;;;5031812;28;20193;-61
2022/11/19 05:42:55;;;;;;;9.95;5.88;;;-0.40;99.90;;;;;;5010103;28;20047;-60
2022/11/19 05:45:20;;;;;;;7.97;4.97;;;-0.40;99.90;;;;;;5016230;28;20033;-60
2022/11/19 05:47:46;;;;;;;7.65;5.28;;;-0.50;99.90;;;;;;5009044;28;20047;-59
2022/11/19 05:50:12;;;;;;;7.93;5.47;;;-0.50;99.90;;;;;;4998186;28;20053;-60
2022/11/19 05:52:38;;;;;;;8.20;5.60;;;-0.50;99.90;;;;;;5027965;28;20030;-60
2022/11/19 05:55:04;;;;;;;9.98;5.40;;;-0.50;99.90;;;;;;5031056;28;20033;-59
2022/11/19 05:57:30;;;;;;;8.83;5.40;;;-0.50;99.90;;;;;;5022891;28;20045;-59
2022/11/19 05:59:55;;;;;;;9.07;5.80;;;-0.50;99.90;;;;;;5026076;28;20045;-58
2022/11/19 06:02:21;;;;;;;8.47;5.47;;;-0.50;99.90;;;;;;5031292;28;20041;-60
2022/11/19 06:04:47;;;;;;;8.00;5.10;;;-0.50;99.90;;;;;;5014391;28;20037;-60
2022/11/19 06:07:12;;;;;;;8.80;5.10;;;-0.60;99.90;;;;;;4999750;28;20038;-60
2022/11/19 06:09:38;;;;;;;7.97;5.53;;;-0.50;99.90;;;;;;4995671;28;20059;-59
2022/11/19 06:12:04;;;;;;;7.87;5.40;;;-0.50;99.90;;;;;;5036144;28;20029;-59
2022/11/19 06:14:30;;;;;;;9.50;5.73;;;-0.60;99.90;;;;;;5023391;28;20053;-60
2022/11/19 06:16:59;;;;;;;7.27;4.93;;;-0.60;99.90;;;;;;5024797;28;20574;-60
2022/11/19 06:19:25;;;;;;;7.90;5.13;;;-0.60;99.90;;;;;;5004398;28;20049;-59
2022/11/19 06:21:52;;;;;;;8.40;5.90;;;-0.60;99.90;;;;;;4996136;28;20041;-59
2022/11/19 06:24:18;;;;;;;9.07;5.03;;;-0.60;99.90;;;;;;5010378;28;20121;-59
2022/11/19 06:26:43;;;;;;;8.50;5.30;;;-0.60;99.90;;;;;;5014735;28;20459;-60
2022/11/19 06:29:11;;;;;;;9.60;5.70;;;-0.60;99.90;;;;;;5008696;28;20116;-60
2022/11/19 06:31:37;;;;;;;9.17;6.40;;;-0.60;99.90;;;;;;5028931;28;20068;-59
2022/11/19 06:34:03;;;;;;;9.77;5.67;;;-0.60;99.90;;;;;;5028634;28;20205;-60
2022/11/19 06:36:29;;;;;;;9.13;5.67;;;-0.70;99.90;;;;;;5030098;28;20041;-60
2022/11/19 06:38:54;;;;;;;7.30;5.13;;;-0.70;99.90;;;;;;5031048;28;20048;-60
2022/11/19 06:41:20;;;;;;;9.73;5.50;;;-0.70;99.90;;;;;;5005343;28;20060;-60
2022/11/19 06:43:46;;;;;;;8.80;5.27;;;-0.70;99.90;;;;;;5005698;28;20415;-58
2022/11/19 06:46:12;;;;;;;8.17;5.33;;;-0.70;99.90;;;;;;5005842;28;20046;-59
2022/11/19 06:48:38;;;;;;;10.07;5.57;;;-0.70;99.90;;;;;;4992340;28;20049;-58
2022/11/19 06:51:04;;;;;;;8.53;5.40;;;-0.70;99.90;;;;;;4980954;28;20041;-60
2022/11/19 06:53:30;;;;;;;8.50;5.25;;;-0.70;99.90;;;;;;5018745;28;20029;-60
2022/11/19 06:56:02;;;;;;;8.10;5.00;;;-0.70;99.90;;;;;;5031497;28;20083;-60
2022/11/19 06:58:28;;;;;;;7.87;5.17;;;-0.70;99.90;;;;;;5010378;28;20053;-60
2022/11/19 07:00:54;;;;;;;10.90;6.33;;;-0.70;99.90;;;;;;5024532;28;20043;-60
2022/11/19 07:03:20;;;;;;;8.03;5.47;;;-0.70;99.90;;;;;;5030930;28;20544;-60
2022/11/19 07:05:53;;;;;;;7.93;5.47;;;-0.70;99.90;;;;;;5030853;28;20034;-59
2022/11/19 07:08:19;;;;;;;8.18;5.30;;;-0.70;99.90;;;;;;5028908;28;20049;-58
2022/11/19 07:10:45;;;;;;;8.07;5.70;;;-0.40;99.90;;;;;;5023895;28;20044;-60
2022/11/19 07:13:10;;;;;;;9.17;5.80;;;-0.70;99.90;;;;;;5022494;28;20046;-60
2022/11/19 07:15:36;;;;;;;8.87;5.40;;;-0.70;99.90;;;;;;5025185;28;20052;-60
2022/11/19 07:18:02;;;;;;;11.53;6.07;;;-0.70;99.90;;;;;;5024378;28;20290;-59
2022/11/19 07:20:28;;;;;;;8.67;5.47;;;-0.80;99.90;;;;;;5075116;22;20055;-80
2022/11/19 07:22:54;;;;;;;7.20;5.17;;;-0.80;99.90;;;;;;5049227;28;20044;-82
2022/11/19 07:25:19;;;;;;;8.17;5.50;;;-0.80;99.90;;;;;;5020833;28;20052;-79
2022/11/19 07:27:46;;;;;;;9.53;5.30;;;0.30;99.90;;;;;;5057543;28;20063;-81
2022/11/19 07:30:13;;;;;;;10.33;5.93;;;-0.70;99.90;;;;;;5036977;28;20037;-81
2022/11/19 07:32:39;;;;;;;8.73;5.90;;;-0.70;99.90;;;;;;5006560;28;20048;-81
2022/11/19 07:35:05;;;;;;;7.47;5.03;;;-0.70;99.90;;;;;;5049549;28;20053;-83
2022/11/19 07:37:31;;;;;;;8.97;5.67;;;-0.70;99.90;;;;;;5037895;28;20432;-84
2022/11/19 07:39:57;;;;;;;9.17;6.50;;;-0.70;99.90;;;;;;5033936;28;20041;-81
2022/11/19 07:45:08;;;;;;;8.70;5.90;;;-0.60;99.90;;;;;;5052456;28;20104;-81
2022/11/19 07:47:34;;;;;;;8.07;5.40;;;-0.70;99.90;;;;;;5053415;28;20417;-80
2022/11/19 07:50:00;;;;;;;7.93;5.20;;;-0.70;99.90;;;;;;5037658;28;20060;-82
2022/11/19 07:52:26;;;;;;;10.00;5.73;;;-0.70;99.90;;;;;;5039740;28;20090;-79
2022/11/19 07:54:52;;;;;;;7.80;5.03;;;-0.60;99.90;;;;;;5017623;28;20041;-79
2022/11/19 07:57:17;;;;;;;8.47;5.00;;;-0.60;99.90;;;;;;5040482;28;20855;-84
2022/11/19 07:59:43;;;;;;;8.63;5.50;;;-0.60;99.90;;;;;;5019106;28;20037;-81
2022/11/19 08:02:14;;;;;;;8.53;5.27;;;-0.60;99.90;;;;;;5037130;28;20162;-81
2022/11/19 08:04:40;;;;;;;10.60;5.77;;;-0.60;99.90;;;;;;5047220;28;20081;-84
2022/11/19 08:07:06;;;;;;;8.13;5.47;;;-0.60;99.90;;;;;;5049177;28;20099;-81
2022/11/19 08:09:32;;;;;;;8.73;5.63;;;-0.50;99.90;;;;;;5042766;28;20029;-82
2022/11/19 08:11:58;;;;;;;8.43;5.20;;;-0.50;99.90;;;;;;5046347;28;20032;-80
2022/11/19 08:14:24;;;;;;;8.63;5.37;;;-0.50;99.90;;;;;;5002262;28;20481;-82
2022/11/19 08:19:34;;;;;;;8.48;6.20;;;0.40;99.90;;;;;;5041346;28;20076;-82
2022/11/19 08:21:59;;;;;;;9.57;6.37;;;-0.40;99.90;;;;;;5043332;28;20354;-84
2022/11/19 08:24:25;;;;;;;10.87;5.57;;;-0.40;99.90;;;;;;5050851;28;20045;-83
2022/11/19 08:26:50;;;;;;;9.60;5.57;;;-0.40;99.90;;;;;;5045855;28;20029;-82
2022/11/19 08:29:19;;;;;;;9.37;6.57;;;-0.30;99.90;;;;;;5044886;28;20066;-81
2022/11/19 08:31:46;;;;;;;8.20;5.70;;;0.70;99.90;;;;;;5048173;28;20662;-84
2022/11/19 08:34:13;;;;;;;8.33;5.70;;;-0.10;99.90;;;;;;5041566;28;20067;-83
2022/11/19 08:36:39;;;;;;;8.90;6.10;;;0.50;99.90;;;;;;5040618;28;20424;-83
2022/11/19 08:39:05;;;;;;;9.45;6.35;;;0.90;99.90;;;;;;5034624;28;20045;-81
2022/11/19 08:44:16;;;;;;;8.10;5.33;;;0.00;99.90;;;;;;5050528;28;20100;-84
2022/11/19 08:46:43;;;;;;;8.73;6.03;;;0.10;99.90;;;;;;5048942;28;20088;-85
2022/11/19 08:49:10;;;;;;;9.77;6.00;;;0.10;99.90;;;;;;5048727;28;20060;-85
2022/11/19 08:51:36;;;;;;;10.23;6.30;;;0.20;99.90;;;;;;5065359;28;20037;-86
2022/11/19 08:54:03;;;;;;;10.00;6.60;;;0.20;99.90;;;;;;5065488;28;20032;-84
2022/11/19 08:56:29;;;;;;;10.43;6.50;;;0.30;99.90;;;;;;5046315;28;20048;-82
2022/11/19 08:58:55;;;;;;;8.55;6.00;;;0.30;99.90;;;;;;5049779;28;20053;-83
2022/11/19 09:01:21;;;;;;;13.88;7.68;;;1.60;99.90;;;;;;5036440;28;20137;-83
2022/11/19 09:03:47;;;;;;;13.90;8.10;;;0.40;99.90;;;;;;5051117;28;20041;-83
2022/11/19 09:06:13;;;;;;;10.55;7.07;;;0.50;99.90;;;;;;5020977;28;20033;-82
2022/11/19 09:08:39;;;;;;;10.77;8.63;;;0.50;99.90;;;;;;5052726;28;20702;-81
2022/11/19 09:11:07;;;;;;;11.95;7.55;;;1.20;99.90;;;;;;5036828;28;20037;-83
2022/11/19 09:13:33;;;;;;;9.10;6.13;;;0.60;99.90;;;;;;5049832;28;20067;-82
2022/11/19 09:15:58;;;;;;;10.68;7.00;;;0.70;99.90;;;;;;5024056;28;20093;-82
2022/11/19 09:18:24;;;;;;;10.07;6.72;;;1.40;99.90;;;;;;5021336;28;20104;-82
2022/11/19 09:20:54;;;;;;;11.15;7.82;;;1.10;99.90;;;;;;5021463;28;20041;-81
2022/11/19 09:23:23;;;;;;;10.48;6.97;;;0.90;99.90;;;;;;5035997;28;20081;-83
2022/11/19 09:25:56;;;;;;;9.73;6.63;;;0.90;99.90;;;;;;5019044;28;20041;-80
2022/11/19 09:28:21;;;;;;;9.18;6.40;;;1.10;99.90;;;;;;5052398;28;20041;-84
2022/11/19 09:31:11;;;;;;;9.00;6.75;;;1.10;99.90;;;;;;5040373;28;20039;-84
2022/11/19 09:33:41;;;;;;;10.48;5.85;;;1.10;99.90;;;;;;5051483;28;20033;-84
2022/11/19 09:36:07;;;;;;;9.52;6.78;;;2.00;99.90;;;;;;5040681;28;20055;-83
2022/11/19 09:38:36;;;;;;;9.07;6.10;;;1.30;99.90;;;;;;5052262;28;20570;-83
2022/11/19 09:41:20;;;;;;;9.02;6.55;;;1.30;99.90;;;;;;5036983;28;20036;-84
2022/11/19 09:44:25;;;;;;;8.15;5.82;;;1.50;99.90;;;;;;5050380;28;20072;-85
2022/11/19 09:47:00;;;;;;;9.90;5.85;;;1.50;99.90;;;;;;5049565;28;20028;-82
2022/11/19 09:49:39;;;;;;;9.13;6.53;;;1.60;99.90;;;;;;5067644;28;20044;-82
2022/11/19 09:52:10;;;;;;;8.20;5.70;;;2.60;99.90;;;;;;5033911;28;20127;-82
2022/11/19 09:54:45;;;;;;;7.72;5.45;;;1.80;99.90;;;;;;5049801;28;20029;-83
2022/11/19 09:57:15;;;;;;;10.02;6.07;;;1.90;99.90;;;;;;5036160;28;20041;-85
2022/11/19 09:59:41;;;;;;;9.57;5.43;;;2.50;99.90;;;;;;5044351;28;20057;-85
2022/11/19 10:02:18;;;;;;;7.38;5.63;;;2.10;99.90;;;;;;5037050;28;20092;-85
2022/11/19 10:04:45;;;;;;;9.43;5.70;;;3.20;99.90;;;;;;5071712;28;20035;-86
2022/11/19 10:07:43;;;;;;;8.18;5.82;;;2.20;99.90;;;;;;5062880;28;20045;-82
2022/11/19 10:10:41;;;;;;;8.80;5.95;;;2.30;99.90;;;;;;5032058;28;20037;-82
2022/11/19 10:13:28;;;;;;;8.82;5.68;;;2.30;99.90;;;;;;5045035;28;20045;-82
2022/11/19 10:15:54;;;;;;;8.70;5.03;;;2.40;99.90;;;;;;5048258;28;20049;-82
2022/11/19 10:18:41;;;;;;;7.65;5.70;;;2.50;99.90;;;;;;5034083;28;20048;-86
2022/11/19 10:21:11;;;;;;;7.88;5.90;;;2.60;99.90;;;;;;5033719;28;20044;-82
2022/11/19 10:24:16;;;;;;;7.53;5.32;;;2.60;99.90;;;;;;5052177;28;20068;-81
2022/11/19 10:26:44;;;;;;;;;;;2.60;99.90;;;;;;4998653;28;20053;-82
2022/11/19 10:29:23;;;;;;;10.05;5.63;;;2.70;99.90;;;;;;5024604;28;19920;-82
2022/11/19 10:31:50;;;;;;;8.85;5.45;;;3.30;99.90;;;;;;5034279;28;20111;-83
2022/11/19 10:34:32;;;;;;;10.57;5.50;;;2.90;99.90;;;;;;5032946;28;20051;-82
2022/11/19 10:37:08;;;;;;;8.38;4.63;;;2.80;99.30;;;;;;5045759;28;20120;-82
2022/11/19 10:39:50;;;;;;;8.38;4.70;;;2.80;99.90;;;;;;5044895;28;20033;-83
2022/11/19 10:42:24;;;;;;;7.65;5.50;;;2.90;99.90;;;;;;5038645;28;20183;-84
2022/11/19 10:45:08;;;;;;;;;;;3.00;99.90;;;;;;5051571;28;20852;-84
2022/11/19 10:48:10;;;;;;;8.32;5.07;;;3.00;99.10;;;;;;5029792;28;19924;-80
2022/11/19 10:50:36;;;;;;;7.38;4.78;;;3.00;99.90;;;;;;5034371;28;20186;-83
2022/11/19 10:53:14;;;;;;;8.02;4.72;;;4.00;99.90;;;;;;5018013;28;20509;-82
2022/11/19 10:56:02;;;;;;;6.43;4.55;;;3.20;99.10;;;;;;5051413;28;20713;-84
2022/11/19 10:58:33;;;;;;;7.05;4.85;;;3.20;99.90;;;;;;5057337;28;20032;-82
2022/11/19 11:01:01;;;;;;;14.98;4.60;;;4.30;99.90;;;;;;5037172;28;20073;-84
2022/11/19 11:03:37;;;;;;;7.20;4.32;;;4.20;99.90;;;;;;5038599;28;20048;-85
2022/11/19 11:06:06;;;;;;;7.10;4.38;;;4.40;99.80;;;;;;5030428;28;20041;-83
2022/11/19 11:08:32;;;;;;;7.75;4.72;;;3.40;99.50;;;;;;5030861;28;20382;-85
2022/11/19 11:11:02;;;;;;;6.38;4.32;;;4.20;99.50;;;;;;5034412;28;20095;-84
2022/11/19 11:16:44;;;;;;;7.90;4.45;;;3.60;99.00;;;;;;5052671;28;20045;-84
2022/11/19 11:19:18;;;;;;;7.22;3.80;;;3.50;98.90;;;;;;5052000;28;20045;-84
2022/11/19 11:21:55;;;;;;;7.07;4.30;;;4.60;99.60;;;;;;5033689;28;20041;-84
2022/11/19 11:24:29;;;;;;;8.13;4.10;;;3.60;98.80;;;;;;5033435;28;20037;-83
2022/11/19 11:27:23;;;;;;;6.25;3.83;;;3.40;98.80;;;;;;5017519;28;20033;-84
2022/11/19 11:30:04;;;;;;;6.13;4.28;;;4.00;98.90;;;;;;5034219;28;20055;-82
2022/11/19 11:32:30;;;;;;;6.50;4.30;;;3.70;99.40;;;;;;5032064;28;20497;-83
2022/11/19 11:34:56;;;;;;;5.30;3.85;;;4.00;98.60;;;;;;5019414;28;20041;-83
2022/11/19 11:37:23;;;;;;;8.25;4.20;;;3.90;98.90;;;;;;5035782;28;20057;-82
2022/11/19 11:39:53;;;;;;;5.93;4.40;;;3.90;98.80;;;;;;5022808;28;20045;-83
2022/11/19 11:42:20;;;;;;;7.25;5.13;;;3.90;98.80;;;;;;5041675;28;20075;-83
2022/11/19 11:45:00;;;;;;;7.95;6.60;;;4.00;99.30;;;;;;5036017;28;20486;-82
2022/11/19 11:47:28;;;;;;;7.22;4.53;;;4.10;99.40;;;;;;5039404;28;20071;-83
2022/11/19 11:50:10;;;;;;;7.15;4.50;;;4.10;99.00;;;;;;5039816;28;20044;-84
2022/11/19 11:52:42;;;;;;;7.13;5.47;;;4.20;98.90;;;;;;5039104;28;20043;-84
2022/11/19 11:55:23;;;;;;;6.88;4.15;;;5.00;99.40;;;;;;5058712;28;20078;-86
2022/11/19 11:58:22;;;;;;;6.38;4.20;;;4.20;99.30;;;;;;5055183;28;20021;-84
2022/11/19 12:00:48;;;;;;;5.57;3.97;;;4.30;99.60;;;;;;5054863;28;20024;-87
2022/11/19 12:03:19;;;;;;;4.75;3.58;;;4.30;98.70;;;;;;5056912;28;20025;-83
2022/11/19 12:06:07;;;;;;;5.35;3.88;;;4.50;99.10;;;;;;5043658;28;20425;-84
2022/11/19 12:09:01;;;;;;;7.15;4.28;;;4.30;98.90;;;;;;5038796;28;20032;-83
2022/11/19 12:11:59;;;;;;;7.30;4.65;;;4.20;98.70;;;;;;5057992;28;20038;-84
2022/11/19 12:15:06;;;;;;;6.50;4.35;;;4.20;99.40;;;;;;5039121;28;20067;-83
2022/11/19 12:17:51;;;;;;;7.57;4.22;;;4.30;99.70;;;;;;5035401;28;20075;-84
2022/11/19 12:20:32;;;;;;;6.75;4.20;;;4.20;99.20;;;;;;5038802;28;20519;-84
2022/11/19 12:23:20;;;;;;;7.60;4.10;;;4.70;99.80;;;;;;5041025;28;20095;-83
2022/11/19 12:26:16;;;;;;;5.50;3.90;;;4.10;99.80;;;;;;5039124;28;20037;-85
2022/11/19 12:29:00;;;;;;;7.38;4.38;;;4.40;99.90;;;;;;5039278;28;20452;-83
2022/11/19 12:31:47;;;;;;;6.18;4.15;;;4.10;99.70;;;;;;5049389;28;20041;-81
2022/11/19 12:34:37;;;;;;;12.68;8.13;;;4.00;99.80;;;;;;5041882;28;20033;-83
2022/11/19 12:37:11;;;;;;;11.25;6.50;;;4.00;99.90;;;;;;5035859;28;20126;-83
2022/11/19 12:39:40;;;;;;;7.60;4.40;;;4.50;99.90;;;;;;5042386;28;20080;-85
2022/11/19 12:42:21;;;;;;;5.78;3.58;;;4.00;99.90;;;;;;5037434;28;20049;-84
2022/11/19 12:45:19;;;;;;;5.18;3.40;;;4.00;99.90;;;;;;5037297;28;20513;-83
2022/11/19 12:48:13;;;;;;;4.40;2.80;;;3.90;99.90;;;;;;5067872;28;20496;-83
2022/11/19 12:50:57;;;;;;;5.95;3.28;;;4.00;99.90;;;;;;5051652;28;20108;-85
2022/11/19 12:53:53;;;;;;;5.13;2.90;;;4.40;99.90;;;;;;5033695;28;20065;-81
2022/11/19 12:56:51;;;;;;;5.47;3.05;;;4.00;99.90;;;;;;5054735;28;20060;-84
2022/11/19 12:59:44;;;;;;;5.43;3.63;;;4.00;99.90;;;;;;5037423;28;20041;-84
2022/11/19 13:02:20;;;;;;;6.85;3.65;;;4.00;99.90;;;;;;5054758;28;20040;-82
2022/11/19 13:04:56;;;;;;;5.40;3.45;;;4.00;99.90;;;;;;5060633;28;20044;-84
2022/11/19 13:07:31;;;;;;;6.60;3.60;;;4.00;99.90;;;;;;5046606;28;20044;-84
2022/11/19 13:10:14;;;;;;;5.75;3.08;;;4.10;99.90;;;;;;5041084;28;20048;-84
2022/11/19 13:12:48;;;;;;;5.57;3.20;;;4.00;99.90;;;;;;5057583;28;20053;-84
2022/11/19 13:15:23;;;;;;;4.93;3.13;;;4.00;99.90;;;;;;5039017;28;20041;-82
2022/11/19 13:17:58;;;;;;;6.30;3.85;;;4.00;99.90;;;;;;5054269;28;20041;-82
2022/11/19 13:20:27;;;;;;;6.53;4.03;;;4.80;99.90;;;;;;5041978;28;20045;-83
2022/11/19 13:22:58;;;;;;;6.07;3.00;;;4.00;99.90;;;;;;5042152;28;20062;-81
2022/11/19 13:25:40;;;;;;;5.88;3.25;;;4.90;99.90;;;;;;5057254;28;20727;-83
2022/11/19 13:28:17;;;;;;;4.53;3.17;;;4.00;99.90;;;;;;5058380;28;20025;-82
2022/11/19 13:30:49;;;;;;;6.70;3.33;;;4.10;99.90;;;;;;5097259;22;20068;-84
2022/11/19 13:33:29;;;;;;;5.35;3.53;;;4.40;99.90;;;;;;5073359;28;20079;-84
2022/11/19 13:36:09;;;;;;;6.38;3.75;;;4.40;99.90;;;;;;5081956;28;20044;-85